Time;durP1;ratioP1;P1;durP2;ratioP2;P2;SDS_P1;SDS_P2;PMS_P1;PMS_P2;Temp;Humidity;BMP_temperature;BMP_pressure;BME280_temperature;BME280_humidity;BME280_pressure;Samples;Min_cycle;Max_cycle;Signal;HPM_P1;HPM_P2
2022/11/13 00:01:22;;;;;;;70.50;30.60;;;;;;;;;;5066549;28;20086;-61
2022/11/13 00:03:47;;;;;;;69.53;31.20;;;;;;;;;;5067249;28;20016;-61
2022/11/13 00:06:13;;;;;;;78.90;32.30;;;;;;;;;;5069946;28;20032;-60
2022/11/13 00:08:38;;;;;;;80.80;34.17;;;;;;;;;;5069587;28;20444;-61
2022/11/13 00:11:06;;;;;;;80.40;33.67;;;;;;;;;;5066082;28;20460;-61
2022/11/13 00:13:31;;;;;;;74.80;32.83;;;;;;;;;;5070659;28;20024;-61
2022/11/13 00:16:01;;;;;;;71.57;32.93;;;;;;;;;;5064923;28;20032;-61
2022/11/13 00:18:28;;;;;;;79.60;33.77;;;;;;;;;;5067641;28;20482;-61
2022/11/13 00:20:53;;;;;;;81.33;32.50;;;;;;;;;;5069168;28;20028;-61
2022/11/13 00:23:19;;;;;;;81.17;33.17;;;;;;;;;;5067795;28;20065;-60
2022/11/13 00:25:44;;;;;;;89.43;35.60;;;;;;;;;;5065833;28;20043;-60
2022/11/13 00:28:09;;;;;;;92.40;35.07;;;;;;;;;;5070154;28;20050;-61
2022/11/13 00:30:35;;;;;;;87.70;35.43;;;;;;;;;;5064364;28;20376;-61
2022/11/13 00:33:00;;;;;;;86.23;33.93;;;;;;;;;;5067882;28;20038;-62
2022/11/13 00:35:25;;;;;;;82.37;33.97;;;;;;;;;;5065197;28;20024;-61
2022/11/13 00:37:50;;;;;;;88.20;35.83;;;;;;;;;;5069311;28;20035;-61
2022/11/13 00:40:16;;;;;;;92.87;36.33;;;;;;;;;;5058563;28;20033;-61
2022/11/13 00:42:41;;;;;;;88.20;36.77;;;;;;;;;;5062295;28;20090;-61
2022/11/13 00:45:07;;;;;;;93.37;37.33;;;;;;;;;;5051868;28;20024;-61
2022/11/13 00:47:33;;;;;;;99.00;39.87;;;;;;;;;;5054715;28;20534;-62
2022/11/13 00:49:58;;;;;;;82.10;36.47;;;;;;;;;;5060139;28;20028;-61
2022/11/13 00:52:23;;;;;;;99.27;37.83;;;;;;;;;;5063869;28;20106;-61
2022/11/13 00:54:49;;;;;;;91.53;38.63;;;;;;;;;;5047725;28;20048;-61
2022/11/13 00:57:14;;;;;;;86.87;37.57;;;;;;;;;;5051771;28;20063;-62
2022/11/13 00:59:39;;;;;;;94.53;38.33;;;;;;;;;;5048187;28;20036;-61
2022/11/13 01:02:04;;;;;;;90.73;37.27;;;;;;;;;;5062726;28;20377;-61
2022/11/13 01:04:30;;;;;;;98.43;39.90;;;;;;;;;;5071650;28;20051;-61
2022/11/13 01:06:55;;;;;;;95.63;38.73;;;;;;;;;;5067495;28;20420;-61
2022/11/13 01:09:20;;;;;;;95.20;38.43;;;;;;;;;;5071861;28;20043;-62
2022/11/13 01:11:45;;;;;;;94.67;38.30;;;;;;;;;;5068463;28;20050;-61
2022/11/13 01:14:11;;;;;;;95.83;38.37;;;;;;;;;;5073662;28;20361;-60
2022/11/13 01:16:36;;;;;;;94.73;37.23;;;;;;;;;;5065038;28;20479;-60
2022/11/13 01:19:01;;;;;;;94.70;37.37;;;;;;;;;;5066886;28;20052;-60
2022/11/13 01:21:26;;;;;;;83.33;35.67;;;;;;;;;;5063342;28;20111;-61
2022/11/13 01:23:53;;;;;;;85.90;35.20;;;;;;;;;;5068197;28;20021;-61
2022/11/13 01:26:18;;;;;;;88.30;35.93;;;;;;;;;;5066179;28;20025;-61
2022/11/13 01:28:44;;;;;;;89.73;35.67;;;;;;;;;;5078453;28;20027;-61
2022/11/13 01:31:11;;;;;;;96.10;36.87;;;;;;;;;;5044828;28;20358;-60
2022/11/13 01:33:36;;;;;;;88.90;36.60;;;;;;;;;;5068645;28;20021;-61
2022/11/13 01:36:06;;;;;;;96.97;36.87;;;;;;;;;;5065789;28;20037;-60
2022/11/13 01:38:32;;;;;;;95.93;38.13;;;;;;;;;;5066312;28;20021;-61
2022/11/13 01:40:57;;;;;;;101.17;39.07;;;;;;;;;;5068158;28;20038;-61
2022/11/13 01:43:27;;;;;;;104.87;40.07;;;;;;;;;;5071307;28;20020;-60
2022/11/13 01:45:58;;;;;;;93.40;37.80;;;;;;;;;;5064916;28;20013;-62
2022/11/13 01:48:30;;;;;;;99.03;37.85;;;;;;;;;;5068003;28;20468;-61
2022/11/13 01:50:56;;;;;;;88.70;35.93;;;;;;;;;;5068320;28;20047;-60
2022/11/13 01:53:21;;;;;;;93.60;38.53;;;;;;;;;;5064329;28;20055;-61
2022/11/13 01:55:46;;;;;;;95.80;38.77;;;;;;;;;;5066667;28;20021;-61
2022/11/13 01:58:12;;;;;;;97.23;38.93;;;;;;;;;;5073336;28;20071;-61
2022/11/13 02:00:37;;;;;;;99.33;40.13;;;;;;;;;;5070704;28;20433;-61
2022/11/13 02:03:03;;;;;;;97.53;40.53;;;;;;;;;;5072589;28;20021;-61
2022/11/13 02:05:28;;;;;;;95.60;40.17;;;;;;;;;;5070280;28;20017;-61
2022/11/13 02:07:53;;;;;;;98.13;39.90;;;;;;;;;;5064024;28;20074;-62
2022/11/13 02:10:18;;;;;;;99.03;40.00;;;;;;;;;;5070945;28;20407;-60
2022/11/13 02:12:47;;;;;;;95.83;40.50;;;;;;;;;;5072761;28;20012;-61
2022/11/13 02:15:12;;;;;;;101.40;40.60;;;;;;;;;;5068922;28;20028;-61
2022/11/13 02:17:37;;;;;;;94.03;39.07;;;;;;;;;;5069307;28;20035;-61
2022/11/13 02:20:05;;;;;;;100.27;39.20;;;;;;;;;;5071673;28;20033;-61
2022/11/13 02:22:50;;;;;;;100.07;40.80;;;;;;;;;;5073446;28;20463;-61
2022/11/13 02:25:15;;;;;;;95.17;38.97;;;;;;;;;;5069014;28;20029;-61
2022/11/13 02:27:45;;;;;;;95.97;37.70;;;;;;;;;;5073133;28;20017;-62
2022/11/13 02:30:10;;;;;;;92.93;36.20;;;;;;;;;;5065873;28;20028;-61
2022/11/13 02:32:40;;;;;;;79.43;34.73;;;;;;;;;;5068307;28;20398;-61
2022/11/13 02:35:06;;;;;;;90.53;35.67;;;;;;;;;;5067826;28;20100;-61
2022/11/13 02:37:31;;;;;;;102.43;37.37;;;;;;;;;;5069639;28;20154;-61
2022/11/13 02:39:56;;;;;;;101.20;38.77;;;;;;;;;;5064124;28;20083;-61
2022/11/13 02:42:21;;;;;;;91.87;37.13;;;;;;;;;;5068072;28;20024;-61
2022/11/13 02:44:47;;;;;;;91.63;36.97;;;;;;;;;;5070121;28;20043;-61
2022/11/13 02:47:12;;;;;;;85.40;36.53;;;;;;;;;;5065354;28;20121;-61
2022/11/13 02:49:37;;;;;;;91.87;38.07;;;;;;;;;;5066308;28;20032;-60
2022/11/13 02:52:02;;;;;;;99.10;39.17;;;;;;;;;;5070089;28;20029;-61
2022/11/13 02:54:27;;;;;;;98.30;40.13;;;;;;;;;;5070281;28;20032;-61
2022/11/13 02:56:53;;;;;;;98.07;39.73;;;;;;;;;;5067099;28;20028;-61
2022/11/13 02:59:18;;;;;;;96.37;39.17;;;;;;;;;;5066857;28;20036;-61
2022/11/13 03:01:44;;;;;;;99.43;38.93;;;;;;;;;;5067231;28;20028;-61
2022/11/13 03:04:09;;;;;;;104.53;41.03;;;;;;;;;;5069020;28;20025;-61
2022/11/13 03:06:35;;;;;;;96.50;40.13;;;;;;;;;;5070699;28;20028;-62
2022/11/13 03:09:00;;;;;;;102.80;40.27;;;;;;;;;;5067788;28;20520;-61
2022/11/13 03:11:25;;;;;;;99.90;38.43;;;;;;;;;;5068491;28;20063;-61
2022/11/13 03:13:50;;;;;;;100.17;39.03;;;;;;;;;;5071456;28;20463;-61
2022/11/13 03:16:15;;;;;;;101.50;40.30;;;;;;;;;;5066417;28;20356;-61
2022/11/13 03:18:41;;;;;;;105.00;42.10;;;;;;;;;;5068090;28;20375;-61
2022/11/13 03:21:10;;;;;;;97.57;39.90;;;;;;;;;;5066306;28;20036;-60
2022/11/13 03:23:36;;;;;;;104.83;39.63;;;;;;;;;;5067562;28;20464;-61
2022/11/13 03:26:03;;;;;;;107.73;39.67;;;;;;;;;;5073914;28;20161;-61
2022/11/13 03:28:28;;;;;;;99.37;38.67;;;;;;;;;;5069400;28;20100;-61
2022/11/13 03:30:53;;;;;;;103.00;38.73;;;;;;;;;;5061759;28;20562;-61
2022/11/13 03:33:19;;;;;;;92.43;36.20;;;;;;;;;;5068974;28;20035;-61
2022/11/13 03:35:44;;;;;;;84.37;35.27;;;;;;;;;;5070356;28;20044;-61
2022/11/13 03:38:09;;;;;;;89.80;37.07;;;;;;;;;;5069248;28;20060;-63
2022/11/13 03:40:34;;;;;;;94.53;38.13;;;;;;;;;;5062161;28;20021;-63
2022/11/13 03:42:59;;;;;;;90.80;38.30;;;;;;;;;;5069417;28;20032;-63
2022/11/13 03:45:25;;;;;;;95.37;39.00;;;;;;;;;;5065909;28;20028;-63
2022/11/13 03:47:50;;;;;;;90.60;38.43;;;;;;;;;;5072668;28;20095;-63
2022/11/13 03:50:15;;;;;;;91.17;37.20;;;;;;;;;;5068766;28;20379;-63
2022/11/13 03:52:40;;;;;;;94.20;37.50;;;;;;;;;;5071618;28;20059;-63
2022/11/13 03:55:06;;;;;;;87.67;37.73;;;;;;;;;;5068550;28;20033;-63
2022/11/13 03:57:31;;;;;;;93.17;37.53;;;;;;;;;;5072214;28;20387;-63
2022/11/13 03:59:56;;;;;;;89.07;37.77;;;;;;;;;;5067056;28;20035;-63
2022/11/13 04:02:22;;;;;;;103.73;38.17;;;;;;;;;;5063169;28;20100;-63
2022/11/13 04:04:47;;;;;;;90.30;37.53;;;;;;;;;;5067779;28;20044;-63
2022/11/13 04:07:12;;;;;;;97.07;39.20;;;;;;;;;;5068284;28;20070;-63
2022/11/13 04:09:37;;;;;;;85.87;36.87;;;;;;;;;;5070647;28;20527;-63
2022/11/13 04:12:02;;;;;;;94.83;38.30;;;;;;;;;;5064053;28;20056;-63
2022/11/13 04:14:28;;;;;;;99.83;37.27;;;;;;;;;;5070554;28;20435;-63
2022/11/13 04:16:53;;;;;;;88.53;36.50;;;;;;;;;;5066389;28;20550;-63
2022/11/13 04:19:18;;;;;;;82.53;35.73;;;;;;;;;;5069358;28;20434;-63
2022/11/13 04:21:43;;;;;;;93.63;37.07;;;;;;;;;;5068393;28;20595;-63
2022/11/13 04:24:08;;;;;;;99.10;38.37;;;;;;;;;;5070805;28;20119;-63
2022/11/13 04:26:34;;;;;;;89.17;39.07;;;;;;;;;;5067820;28;20146;-63
2022/11/13 04:28:59;;;;;;;94.43;37.40;;;;;;;;;;5067580;28;20036;-63
2022/11/13 04:31:25;;;;;;;96.73;38.23;;;;;;;;;;5065210;28;20029;-63
2022/11/13 04:33:50;;;;;;;104.37;39.80;;;;;;;;;;5068039;28;20044;-63
2022/11/13 04:36:15;;;;;;;113.13;41.07;;;;;;;;;;5067241;28;20029;-63
2022/11/13 04:38:42;;;;;;;108.53;41.20;;;;;;;;;;5067217;28;20492;-63
2022/11/13 04:43:51;;;;;;;105.97;40.47;;;;;;;;;;5070171;28;20043;-63
2022/11/13 04:46:16;;;;;;;99.60;39.93;;;;;;;;;;5065998;28;20032;-63
2022/11/13 04:48:41;;;;;;;98.77;40.90;;;;;;;;;;5065510;28;20023;-63
2022/11/13 04:51:06;;;;;;;94.57;39.03;;;;;;;;;;5066707;28;20044;-63
2022/11/13 04:53:31;;;;;;;99.23;41.03;;;;;;;;;;5070581;28;20029;-63
2022/11/13 04:55:57;;;;;;;101.97;40.40;;;;;;;;;;5061964;28;20035;-63
2022/11/13 04:58:22;;;;;;;96.33;37.33;;;;;;;;;;5067301;28;20021;-63
2022/11/13 05:00:47;;;;;;;93.60;38.67;;;;;;;;;;5063531;28;20083;-63
2022/11/13 05:03:12;;;;;;;98.67;39.87;;;;;;;;;;5075344;28;20103;-63
2022/11/13 05:05:38;;;;;;;100.83;37.67;;;;;;;;;;5065909;28;20108;-63
2022/11/13 05:08:03;;;;;;;100.00;39.77;;;;;;;;;;5065876;28;20028;-63
2022/11/13 05:10:28;;;;;;;105.77;41.60;;;;;;;;;;5070060;28;20451;-63
2022/11/13 05:12:56;;;;;;;109.60;41.10;;;;;;;;;;5062028;28;20459;-63
2022/11/13 05:15:22;;;;;;;108.20;39.87;;;;;;;;;;5064311;28;20024;-63
2022/11/13 05:17:47;;;;;;;110.73;39.47;;;;;;;;;;5069538;28;20063;-63
2022/11/13 05:20:13;;;;;;;100.83;37.93;;;;;;;;;;5069495;28;20383;-63
2022/11/13 05:22:38;;;;;;;108.13;40.50;;;;;;;;;;5068050;28;20051;-63
2022/11/13 05:25:03;;;;;;;110.13;40.27;;;;;;;;;;5071427;28;20040;-63
2022/11/13 05:27:29;;;;;;;108.47;40.50;;;;;;;;;;5076156;28;20020;-63
2022/11/13 05:29:54;;;;;;;106.53;41.60;;;;;;;;;;5070167;28;20032;-63
2022/11/13 05:32:19;;;;;;;108.47;41.20;;;;;;;;;;5071025;28;20520;-63
2022/11/13 05:34:45;;;;;;;103.47;39.47;;;;;;;;;;5072285;28;20494;-63
2022/11/13 05:37:10;;;;;;;97.00;38.30;;;;;;;;;;5070107;28;20444;-62
2022/11/13 05:39:35;;;;;;;97.50;37.60;;;;;;;;;;5066360;28;20032;-63
2022/11/13 05:42:00;;;;;;;89.57;36.23;;;;;;;;;;5067047;28;20078;-63
2022/11/13 05:44:25;;;;;;;101.77;38.83;;;;;;;;;;5075532;28;20099;-63
2022/11/13 05:46:51;;;;;;;104.27;40.37;;;;;;;;;;5068533;28;20012;-63
2022/11/13 05:49:16;;;;;;;102.37;38.90;;;;;;;;;;5072299;28;20028;-63
2022/11/13 05:51:41;;;;;;;112.40;41.03;;;;;;;;;;5073241;28;20032;-63
2022/11/13 05:54:06;;;;;;;109.97;41.40;;;;;;;;;;5073124;28;20527;-63
2022/11/13 05:56:33;;;;;;;107.00;41.37;;;;;;;;;;5052824;28;20369;-63
2022/11/13 05:58:59;;;;;;;110.40;39.23;;;;;;;;;;5072426;28;20029;-63
2022/11/13 06:01:30;;;;;;;126.30;41.70;;;;;;;;;;5061489;28;20032;-63
2022/11/13 06:03:56;;;;;;;113.33;39.37;;;;;;;;;;5060465;28;20581;-63
2022/11/13 06:06:22;;;;;;;111.47;38.53;;;;;;;;;;5067548;28;20012;-63
2022/11/13 06:08:47;;;;;;;114.90;38.30;;;;;;;;;;5069081;28;20019;-63
2022/11/13 06:11:14;;;;;;;104.97;38.47;;;;;;;;;;5067758;28;20146;-63
2022/11/13 06:13:39;;;;;;;94.60;36.50;;;;;;;;;;5070683;28;20061;-63
2022/11/13 06:16:12;;;;;;;94.07;37.23;;;;;;;;;;5065591;28;20548;-63
2022/11/13 06:18:38;;;;;;;107.93;37.37;;;;;;;;;;5068022;28;20059;-63
2022/11/13 06:21:05;;;;;;;96.30;37.13;;;;;;;;;;5070402;28;20063;-63
2022/11/13 06:23:34;;;;;;;91.37;35.50;;;;;;;;;;5066883;28;20028;-63
2022/11/13 06:26:01;;;;;;;95.63;36.23;;;;;;;;;;5071460;28;20099;-63
2022/11/13 06:28:26;;;;;;;93.17;36.70;;;;;;;;;;5068753;28;20423;-63
2022/11/13 06:30:51;;;;;;;97.90;36.77;;;;;;;;;;5063243;28;20016;-63
2022/11/13 06:33:16;;;;;;;99.47;37.30;;;;;;;;;;5070250;28;20054;-63
2022/11/13 06:35:42;;;;;;;99.53;37.27;;;;;;;;;;5066821;28;20531;-63
2022/11/13 06:38:07;;;;;;;105.33;39.70;;;;;;;;;;5067946;28;20075;-63
2022/11/13 06:40:32;;;;;;;105.63;41.23;;;;;;;;;;5067564;28;20057;-63
2022/11/13 06:42:57;;;;;;;99.97;39.97;;;;;;;;;;5070619;28;20020;-63
2022/11/13 06:45:22;;;;;;;102.90;39.47;;;;;;;;;;5062616;28;20296;-63
2022/11/13 06:47:48;;;;;;;97.23;39.13;;;;;;;;;;5070026;28;20033;-63
2022/11/13 06:50:13;;;;;;;107.97;39.00;;;;;;;;;;5071478;28;20714;-63
2022/11/13 06:52:38;;;;;;;97.50;39.63;;;;;;;;;;5068869;28;20059;-63
2022/11/13 06:55:03;;;;;;;110.57;39.43;;;;;;;;;;5068798;28;20060;-63
2022/11/13 06:57:29;;;;;;;107.30;40.63;;;;;;;;;;5062210;28;20336;-63
2022/11/13 06:59:54;;;;;;;107.03;42.33;;;;;;;;;;5070934;28;20035;-63
2022/11/13 07:02:19;;;;;;;127.57;43.00;;;;;;;;;;5074318;28;20024;-63
2022/11/13 07:04:44;;;;;;;108.17;41.63;;;;;;;;;;5073955;28;20036;-63
2022/11/13 07:07:10;;;;;;;105.40;40.60;;;;;;;;;;5073140;28;20028;-63
2022/11/13 07:09:35;;;;;;;98.80;40.53;;;;;;;;;;5071209;28;20040;-63
2022/11/13 07:12:00;;;;;;;99.37;40.13;;;;;;;;;;5064663;28;20072;-63
2022/11/13 07:14:25;;;;;;;96.10;38.70;;;;;;;;;;5053304;28;20028;-63
2022/11/13 07:16:50;;;;;;;96.33;38.33;;;;;;;;;;5078293;28;20034;-63
2022/11/13 07:19:16;;;;;;;112.90;41.40;;;;;;;;;;5080876;28;20028;-63
2022/11/13 07:21:41;;;;;;;112.87;42.83;;;;;;;;;;5065598;28;20035;-63
2022/11/13 07:24:06;;;;;;;115.90;42.80;;;;;;;;;;5058223;28;20119;-63
2022/11/13 07:26:31;;;;;;;122.47;43.73;;;;;;;;;;5074297;28;20031;-63
2022/11/13 07:28:57;;;;;;;111.47;41.90;;;;;;;;;;5076242;28;20486;-63
2022/11/13 07:31:22;;;;;;;115.10;42.97;;;;;;;;;;5075506;28;20472;-63
2022/11/13 07:33:48;;;;;;;104.40;39.43;;;;;;;;;;5072753;28;20066;-63
2022/11/13 07:36:13;;;;;;;104.10;39.50;;;;;;;;;;5068388;28;20074;-63
2022/11/13 07:38:38;;;;;;;87.83;35.53;;;;;;;;;;5064698;28;20036;-63
2022/11/13 07:41:04;;;;;;;78.03;33.53;;;;;;;;;;5069504;28;20102;-63
2022/11/13 07:43:29;;;;;;;68.77;30.43;;;;;;;;;;5069189;28;20040;-63
2022/11/13 07:45:56;;;;;;;55.07;26.97;;;;;;;;;;5058263;28;20028;-63
2022/11/13 07:48:22;;;;;;;47.03;23.23;;;;;;;;;;5068011;28;20540;-63
2022/11/13 07:50:47;;;;;;;37.23;20.60;;;;;;;;;;5061382;28;20021;-63
2022/11/13 07:53:13;;;;;;;37.13;18.47;;;;;;;;;;5086816;28;20024;-63
2022/11/13 07:55:38;;;;;;;32.13;17.60;;;;;;;;;;5074128;28;20464;-63
2022/11/13 07:58:04;;;;;;;30.40;16.93;;;;;;;;;;5073792;28;20036;-63
2022/11/13 08:00:29;;;;;;;25.20;16.00;;;;;;;;;;5080710;28;20044;-63
2022/11/13 08:02:55;;;;;;;27.27;16.37;;;;;;;;;;5079031;28;20395;-63
2022/11/13 08:05:20;;;;;;;25.87;14.43;;;;;;;;;;5077650;28;20028;-63
2022/11/13 08:07:49;;;;;;;26.70;15.80;;;;;;;;;;5080389;28;20027;-63
2022/11/13 08:10:16;;;;;;;26.10;16.13;;;;;;;;;;5071258;28;20052;-63
2022/11/13 08:12:41;;;;;;;25.67;16.93;;;;;;;;;;5074209;28;20506;-63
2022/11/13 08:15:07;;;;;;;30.20;19.70;;;;;;;;;;5056570;28;20025;-63
2022/11/13 08:17:32;;;;;;;29.10;17.93;;;;;;;;;;5076531;28;20541;-63
2022/11/13 08:19:57;;;;;;;29.50;17.80;;;;;;;;;;5070699;28;20067;-63
2022/11/13 08:22:22;;;;;;;30.20;17.40;;;;;;;;;;5081058;28;20031;-63
2022/11/13 08:24:48;;;;;;;33.53;19.17;;;;;;;;;;5072575;28;20027;-62
2022/11/13 08:27:13;;;;;;;31.83;19.70;;;;;;;;;;5073097;28;20099;-63
2022/11/13 08:29:38;;;;;;;34.13;21.13;;;;;;;;;;5077650;28;20024;-63
2022/11/13 08:32:03;;;;;;;36.43;20.50;;;;;;;;;;5076064;28;20032;-63
2022/11/13 08:34:29;;;;;;;34.37;20.57;;;;;;;;;;5068228;28;20557;-63
2022/11/13 08:36:54;;;;;;;49.07;30.53;;;;;;;;;;5071498;28;20377;-63
2022/11/13 08:39:19;;;;;;;33.13;19.80;;;;;;;;;;5078921;28;20043;-63
2022/11/13 08:41:45;;;;;;;37.47;24.20;;;;;;;;;;5067522;28;20027;-63
2022/11/13 08:44:11;;;;;;;30.50;18.47;;;;;;;;;;5070179;28;20279;-63
2022/11/13 08:46:36;;;;;;;31.87;18.90;;;;;;;;;;5077474;28;20439;-63
2022/11/13 08:49:02;;;;;;;30.50;18.30;;;;;;;;;;5076740;28;20020;-63
2022/11/13 08:51:27;;;;;;;32.83;21.00;;;;;;;;;;5072837;28;20031;-63
2022/11/13 08:53:52;;;;;;;33.67;20.93;;;;;;;;;;5063879;28;20428;-63
2022/11/13 08:56:18;;;;;;;33.20;20.90;;;;;;;;;;5061733;28;20551;-63
2022/11/13 08:58:44;;;;;;;34.10;21.13;;;;;;;;;;5065952;28;20024;-63
2022/11/13 09:01:09;;;;;;;35.97;20.40;;;;;;;;;;5066373;28;20021;-63
2022/11/13 09:03:35;;;;;;;30.93;20.00;;;;;;;;;;5073981;28;20036;-63
2022/11/13 09:06:03;;;;;;;31.93;19.30;;;;;;;;;;5065627;28;20531;-63
2022/11/13 09:08:29;;;;;;;31.00;20.40;;;;;;;;;;5070484;28;20025;-63
2022/11/13 09:10:54;;;;;;;33.60;20.57;;;;;;;;;;5063321;28;20034;-64
2022/11/13 09:13:19;;;;;;;31.43;19.13;;;;;;;;;;5070677;28;20532;-63
2022/11/13 09:15:45;;;;;;;29.20;19.57;;;;;;;;;;5079688;28;20467;-63
2022/11/13 09:18:10;;;;;;;30.13;18.30;;;;;;;;;;5065256;28;20491;-63
2022/11/13 09:20:35;;;;;;;31.17;19.03;;;;;;;;;;5073872;28;20028;-63
2022/11/13 09:23:02;;;;;;;30.47;18.23;;;;;;;;;;5067347;28;20074;-63
2022/11/13 09:25:28;;;;;;;29.93;19.03;;;;;;;;;;5086994;28;20612;-64
2022/11/13 09:27:54;;;;;;;28.53;18.93;;;;;;;;;;5065667;28;20376;-63
2022/11/13 09:30:19;;;;;;;26.20;17.20;;;;;;;;;;5065238;28;20032;-63
2022/11/13 09:32:44;;;;;;;30.00;18.73;;;;;;;;;;5054601;28;20032;-63
2022/11/13 09:35:10;;;;;;;31.30;18.17;;;;;;;;;;5057105;28;20031;-63
2022/11/13 09:37:35;;;;;;;32.13;19.97;;;;;;;;;;5061621;28;20482;-63
2022/11/13 09:40:00;;;;;;;28.50;19.07;;;;;;;;;;5063416;28;20094;-63
2022/11/13 09:42:27;;;;;;;28.63;18.47;;;;;;;;;;5064126;28;20479;-63
2022/11/13 09:44:56;;;;;;;27.30;18.07;;;;;;;;;;5071955;28;20063;-63
2022/11/13 09:47:26;;;;;;;28.17;17.60;;;;;;;;;;5068481;28;20036;-63
2022/11/13 09:50:12;;;;;;;28.73;17.67;;;;;;;;;;5064559;28;20103;-63
2022/11/13 09:52:57;;;;;;;25.93;16.70;;;;;;;;;;5047720;28;20298;-64
2022/11/13 09:55:40;;;;;;;26.67;15.33;;;;;;;;;;5058744;28;20036;-63
2022/11/13 09:58:24;;;;;;;25.73;15.37;;;;;;;;;;5061059;28;20032;-63
2022/11/13 10:01:08;;;;;;;25.33;16.63;;;;;;;;;;5076350;28;20020;-63
2022/11/13 10:03:52;;;;;;;24.33;15.03;;;;;;;;;;5067114;28;20036;-63
2022/11/13 10:06:36;;;;;;;23.00;15.23;;;;;;;;;;5071138;28;20108;-63
2022/11/13 10:09:19;;;;;;;21.80;14.50;;;;;;;;;;5069408;28;20027;-63
2022/11/13 10:12:03;;;;;;;22.63;14.23;;;;;;;;;;5081511;28;20035;-63
2022/11/13 10:14:47;;;;;;;23.23;14.37;;;;;;;;;;5077621;28;20032;-63
2022/11/13 10:17:31;;;;;;;19.77;13.47;;;;;;;;;;5071942;28;20082;-63
2022/11/13 10:20:15;;;;;;;21.33;12.37;;;;;;;;;;5073828;28;20530;-63
2022/11/13 10:22:59;;;;;;;20.07;13.63;;;;;;;;;;5071113;28;20113;-63
2022/11/13 10:25:43;;;;;;;18.20;12.17;;;;;;;;;;5067649;28;20032;-63
2022/11/13 10:28:27;;;;;;;18.57;12.00;;;;;;;;;;5058794;28;20028;-63
2022/11/13 10:31:10;;;;;;;19.27;12.03;;;;;;;;;;5063778;28;20751;-63
2022/11/13 10:33:54;;;;;;;19.03;12.03;;;;;;;;;;5067806;28;20135;-63
2022/11/13 10:36:38;;;;;;;15.77;10.20;;;;;;;;;;5068262;28;20048;-64
2022/11/13 10:39:21;;;;;;;16.77;10.77;;;;;;;;;;5064042;28;20470;-63
2022/11/13 10:42:05;;;;;;;16.03;10.40;;;;;;;;;;5086990;28;20032;-63
2022/11/13 10:44:49;;;;;;;16.43;10.17;;;;;;;;;;5062556;28;20123;-63
2022/11/13 10:47:33;;;;;;;14.60;9.57;;;;;;;;;;5071079;28;20095;-64
2022/11/13 10:50:16;;;;;;;16.10;9.73;;;;;;;;;;5073985;28;20021;-63
2022/11/13 10:53:01;;;;;;;13.57;9.30;;;;;;;;;;5073118;28;20020;-63
2022/11/13 10:55:44;;;;;;;12.63;6.90;;;;;;;;;;5074953;28;20016;-64
2022/11/13 10:58:28;;;;;;;14.33;9.07;;;;;;;;;;5070152;28;20115;-64
2022/11/13 11:01:12;;;;;;;13.73;9.13;;;;;;;;;;5076318;28;20127;-63
2022/11/13 11:03:56;;;;;;;14.70;9.63;;;;;;;;;;5060600;28;20025;-63
2022/11/13 11:06:40;;;;;;;14.83;9.17;;;;;;;;;;5070176;28;20147;-63
2022/11/13 11:09:23;;;;;;;15.27;9.20;;;;;;;;;;5070153;28;20024;-63
2022/11/13 11:12:20;;;;;;;13.63;9.43;;;;;;;;;;5071839;28;20063;-63
2022/11/13 11:15:04;;;;;;;13.70;8.37;;;;;;;;;;5068077;28;20388;-63
2022/11/13 11:17:48;;;;;;;14.80;9.00;;;;;;;;;;5065827;28;20033;-63
2022/11/13 11:20:32;;;;;;;14.33;9.60;;;;;;;;;;5065700;28;20036;-64
2022/11/13 11:23:16;;;;;;;13.33;8.33;;;;;;;;;;5050661;28;20102;-63
2022/11/13 11:26:00;;;;;;;12.93;8.70;;;;;;;;;;5076743;28;20479;-63
2022/11/13 11:28:44;;;;;;;13.83;8.63;;;;;;;;;;5068363;28;20292;-63
2022/11/13 11:31:27;;;;;;;13.13;8.40;;;;;;;;;;5076468;28;20024;-63
2022/11/13 11:34:11;;;;;;;12.93;8.37;;;;;;;;;;5073909;28;20027;-64
2022/11/13 11:36:55;;;;;;;15.27;8.67;;;;;;;;;;5074387;28;20476;-63
2022/11/13 11:39:39;;;;;;;13.27;8.60;;;;;;;;;;5072854;28;20028;-63
2022/11/13 11:42:23;;;;;;;17.77;9.53;;;;;;;;;;5064178;28;20463;-63
2022/11/13 11:45:07;;;;;;;14.27;9.60;;;;;;;;;;5062278;28;20036;-63
2022/11/13 11:47:52;;;;;;;14.73;9.43;;;;;;;;;;5066542;28;20451;-64
2022/11/13 11:50:36;;;;;;;14.30;8.53;;;;;;;;;;5064710;28;20431;-63
2022/11/13 11:53:19;;;;;;;14.43;9.43;;;;;;;;;;5064311;28;20464;-63
2022/11/13 11:56:03;;;;;;;15.13;9.73;;;;;;;;;;5056675;28;20112;-63
2022/11/13 11:58:47;;;;;;;16.70;9.60;;;;;;;;;;5062437;28;20055;-63
2022/11/13 12:01:31;;;;;;;13.77;8.60;;;;;;;;;;5076582;28;20491;-64
2022/11/13 12:04:15;;;;;;;16.13;9.40;;;;;;;;;;5059491;28;20044;-63
2022/11/13 12:06:58;;;;;;;15.53;9.47;;;;;;;;;;5058882;28;20032;-63
2022/11/13 12:09:42;;;;;;;18.30;10.23;;;;;;;;;;5065552;28;20020;-63
2022/11/13 12:12:26;;;;;;;16.07;10.50;;;;;;;;;;5065106;28;20036;-63
2022/11/13 12:15:10;;;;;;;15.47;9.40;;;;;;;;;;5069811;28;20052;-63
2022/11/13 12:17:54;;;;;;;15.70;9.00;;;;;;;;;;5061815;28;20032;-63
2022/11/13 12:20:38;;;;;;;14.40;7.53;;;;;;;;;;5073369;28;20040;-65
2022/11/13 12:23:22;;;;;;;15.30;9.43;;;;;;;;;;5063267;28;20525;-63
2022/11/13 12:26:06;;;;;;;15.27;9.60;;;;;;;;;;5069393;28;20066;-63
2022/11/13 12:28:50;;;;;;;15.40;9.83;;;;;;;;;;5063571;28;20032;-63
2022/11/13 12:31:38;;;;;;;14.53;9.47;;;;;;;;;;5062811;28;20118;-63
2022/11/13 12:34:21;;;;;;;14.60;8.00;;;;;;;;;;5071022;28;20032;-64
2022/11/13 12:37:05;;;;;;;15.80;9.67;;;;;;;;;;5065622;28;20025;-63
2022/11/13 12:39:49;;;;;;;16.93;9.33;;;;;;;;;;5057437;28;20037;-63
2022/11/13 12:42:33;;;;;;;15.17;9.13;;;;;;;;;;5066066;28;20157;-64
2022/11/13 12:45:17;;;;;;;16.70;10.33;;;;;;;;;;5070246;28;20075;-63
2022/11/13 12:48:01;;;;;;;16.67;10.67;;;;;;;;;;5062587;28;20025;-63
2022/11/13 12:50:44;;;;;;;16.00;10.73;;;;;;;;;;5059407;28;20028;-63
2022/11/13 12:53:28;;;;;;;16.80;10.43;;;;;;;;;;5059962;28;20479;-64
2022/11/13 12:56:12;;;;;;;17.93;10.93;;;;;;;;;;5071875;28;20041;-63
2022/11/13 12:58:56;;;;;;;18.20;10.73;;;;;;;;;;5060876;28;20028;-63
2022/11/13 13:01:40;;;;;;;16.60;10.50;;;;;;;;;;5059757;28;20083;-64
2022/11/13 13:04:24;;;;;;;18.03;10.50;;;;;;;;;;5071951;28;20036;-64
2022/11/13 13:07:08;;;;;;;15.33;10.33;;;;;;;;;;5062610;28;20043;-64
2022/11/13 13:09:51;;;;;;;15.47;10.30;;;;;;;;;;5077085;28;20105;-64
2022/11/13 13:12:35;;;;;;;15.07;10.43;;;;;;;;;;5073947;28;20032;-64
2022/11/13 13:15:19;;;;;;;15.03;9.87;;;;;;;;;;5068249;28;20515;-64
2022/11/13 13:18:03;;;;;;;17.90;11.20;;;;;;;;;;5065475;28;20034;-63
2022/11/13 13:20:46;;;;;;;20.07;11.67;;;;;;;;;;5063604;28;20036;-64
2022/11/13 13:23:30;;;;;;;17.43;11.40;;;;;;;;;;5059655;28;20396;-64
2022/11/13 13:26:14;;;;;;;17.63;10.53;;;;;;;;;;5076544;28;20392;-63
2022/11/13 13:28:58;;;;;;;16.27;10.63;;;;;;;;;;5057969;28;20429;-64
2022/11/13 13:31:42;;;;;;;16.93;10.67;;;;;;;;;;5060172;28;20033;-63
2022/11/13 13:34:26;;;;;;;18.10;11.23;;;;;;;;;;5070409;28;20039;-63
2022/11/13 13:37:10;;;;;;;17.00;10.07;;;;;;;;;;5076554;28;20547;-64
2022/11/13 13:39:53;;;;;;;18.47;10.77;;;;;;;;;;5052289;28;20115;-63
2022/11/13 13:42:37;;;;;;;17.73;10.67;;;;;;;;;;5052035;28;20036;-63
2022/11/13 13:45:21;;;;;;;16.50;8.93;;;;;;;;;;5077207;28;20111;-63
2022/11/13 13:48:05;;;;;;;16.70;9.03;;;;;;;;;;5070765;28;20075;-63
2022/11/13 13:50:49;;;;;;;16.93;10.07;;;;;;;;;;5072184;28;20036;-63
2022/11/13 13:53:32;;;;;;;13.73;8.27;;;;;;;;;;5066119;28;20067;-65
2022/11/13 13:56:17;;;;;;;14.73;6.90;;;;;;;;;;5068070;28;20040;-65
2022/11/13 13:59:01;;;;;;;16.60;9.20;;;;;;;;;;5072341;28;20103;-65
2022/11/13 14:01:45;;;;;;;17.77;9.97;;;;;;;;;;5068449;28;20032;-64
2022/11/13 14:04:28;;;;;;;15.77;9.87;;;;;;;;;;5066746;28;20024;-65
2022/11/13 14:07:12;;;;;;;17.47;9.80;;;;;;;;;;5071372;28;20094;-64
2022/11/13 14:09:56;;;;;;;16.03;8.77;;;;;;;;;;5066396;28;20031;-65
2022/11/13 14:12:40;;;;;;;15.80;10.33;;;;;;;;;;5073846;28;20028;-64
2022/11/13 14:15:24;;;;;;;14.50;8.57;;;;;;;;;;5060606;28;20059;-65
2022/11/13 14:18:07;;;;;;;16.87;10.60;;;;;;;;;;5087751;28;20032;-65
2022/11/13 14:20:51;;;;;;;15.03;9.03;;;;;;;;;;5082506;28;20034;-63
2022/11/13 14:23:35;;;;;;;16.53;10.00;;;;;;;;;;5072684;28;20036;-66
2022/11/13 14:26:19;;;;;;;14.13;9.07;;;;;;;;;;5073615;28;20121;-64
2022/11/13 14:29:03;;;;;;;17.20;9.97;;;;;;;;;;5078668;28;20036;-64
2022/11/13 14:31:50;;;;;;;17.37;10.03;;;;;;;;;;5069349;28;20036;-65
2022/11/13 14:34:34;;;;;;;17.93;10.83;;;;;;;;;;5064681;28;20044;-64
2022/11/13 14:37:17;;;;;;;13.37;7.50;;;;;;;;;;5067922;28;20450;-65
2022/11/13 14:40:01;;;;;;;16.30;8.43;;;;;;;;;;5074898;28;20489;-65
2022/11/13 14:42:45;;;;;;;14.53;8.93;;;;;;;;;;5071212;28;20766;-66